Current | Forecast
Updated: 11:30 PM +07 on December 14, 2017
Observed at Krasnoyarsk, Russia
Temperature 10°F
Windchill -4°F
Humidity 73%
Dew Point 3°F
Wind West at 11 mph
Pressure 30.83 in (Steady)
Conditions Light Snow
Visibility 6.2 miles
UV 0 out of 16
Clouds Scattered Clouds (SCT) : 3400 ft
Yesterday's Maximum 16°F
Yesterday's Minimum 9°F approx.
Yesterday's Heating Degree Days 53 approx.
Sunrise9:18 AM +07
Sunset4:11 PM +07
Moon Rise4:22 AM +07
Moon Set2:50 PM +07
Moon PhaseMoon Phase
Waning Crescent
Raw METARMETAR UNKL 141630Z 27005MPS 9999 -SN SCT034 M12/M16 Q1044 R29/410150 NOSIG RMK QFE757


Monday
. High: 42° F.
Tuesday
. High: 46° F.
Wednesday
. High: 42° F.
Thursday
. High: 48° F.
Friday
. High: 55° F.
Saturday
. High: 62° F.
Sunday
. High: 71° F.
Monday
. High: 73° F.

Units: English | Metric

Find the Weather for any City, State or Zipcode, or Country:

U.S. State List | Severe Weather | Tropical Storms | Ski Conditions
United States | Canada | Central America | South America | Asia | Europe | Australia | Africa | Islands

Weather Underground

© Copyright 2017
The Weather Company, LLC